Irpin, Ukraine
Current Conditions -  °F | °C
As of 12:00 AM on Friday 19 Dec 2014 (Local Time) from UKKM Reporting Station
NA  
Wind Chill: 29°   Ceiling: NA
Heat Index: 36°   Visibility: 3mi
Dew Point: 36°   Wind: 9mph
Humidity: 100%   Direction: 220°SW
Pressure: 29.94"   Gusts: NA
Location:  50.52°N, 30.25°E
Report Text: UKKM 182100Z AUTO 22004MPS 5000 ///025 02/02 Q1014
Loading
Personal Weather Stations






























Interactive Weather Map New forecast layout! Learn more

10-Day Weather Forecast

Advertisements
Track Severe Weather on mobile